Time;durP1;ratioP1;P1;durP2;ratioP2;P2;SDS_P1;SDS_P2;PMS_P1;PMS_P2;Temp;Humidity;BMP_temperature;BMP_pressure;BME280_temperature;BME280_humidity;BME280_pressure;Samples;Min_cycle;Max_cycle;Signal;HPM_P1;HPM_P2
2020/12/27 00:00:51;;;;;;;6.75;4.65;;;7.90;89.80;;;;;;5095644;28;20089;-64
2020/12/27 00:03:17;;;;;;;7.60;4.40;;;7.90;90.00;;;;;;5096675;28;20016;-65
2020/12/27 00:05:45;;;;;;;4.57;3.45;;;7.90;89.90;;;;;;5095759;28;20047;-64
2020/12/27 00:08:11;;;;;;;6.60;3.88;;;7.90;89.90;;;;;;5096399;28;20120;-64
2020/12/27 00:10:36;;;;;;;7.10;4.57;;;7.90;89.90;;;;;;5096313;28;20051;-65
2020/12/27 00:13:02;;;;;;;9.05;3.85;;;7.90;89.90;;;;;;5095555;28;20047;-64
2020/12/27 00:15:28;;;;;;;7.70;4.35;;;8.00;89.90;;;;;;5096264;28;20043;-64
2020/12/27 00:17:54;;;;;;;7.50;4.07;;;7.90;89.80;;;;;;5096068;28;20422;-64
2020/12/27 00:20:20;;;;;;;5.28;3.58;;;8.00;89.70;;;;;;5095663;28;20039;-64
2020/12/27 00:22:45;;;;;;;9.63;5.40;;;8.00;89.80;;;;;;5096034;28;20039;-65
2020/12/27 00:25:11;;;;;;;7.13;4.32;;;8.00;89.70;;;;;;5096092;28;20093;-64
2020/12/27 00:27:36;;;;;;;4.93;3.38;;;7.90;89.60;;;;;;5095459;28;20423;-64
2020/12/27 00:30:03;;;;;;;8.02;5.00;;;7.90;89.70;;;;;;5096308;28;20479;-64
2020/12/27 00:32:29;;;;;;;7.40;4.80;;;7.80;89.80;;;;;;5096128;28;20028;-64
2020/12/27 00:34:55;;;;;;;5.93;4.10;;;7.80;90.00;;;;;;5094963;28;20505;-64
2020/12/27 00:37:21;;;;;;;6.25;4.47;;;7.80;90.00;;;;;;5095894;28;20032;-64
2020/12/27 00:39:53;;;;;;;6.03;3.03;;;7.80;90.00;;;;;;5094929;28;20056;-64
2020/12/27 00:42:19;;;;;;;5.47;4.00;;;7.90;90.00;;;;;;5095793;28;20032;-64
2020/12/27 00:44:45;;;;;;;5.40;3.20;;;7.90;90.10;;;;;;5095558;28;20038;-64
2020/12/27 00:47:13;;;;;;;6.97;4.53;;;7.80;90.10;;;;;;5094771;28;20040;-64
2020/12/27 00:49:39;;;;;;;6.47;4.90;;;7.80;90.00;;;;;;5094248;28;20035;-65
2020/12/27 00:52:05;;;;;;;5.75;4.43;;;7.80;90.10;;;;;;5111329;28;20114;-65
2020/12/27 00:54:31;;;;;;;7.25;5.38;;;7.70;90.10;;;;;;5093520;28;20036;-65
2020/12/27 00:56:57;;;;;;;8.93;5.57;;;7.80;90.20;;;;;;5094414;28;20085;-65
2020/12/27 00:59:23;;;;;;;4.85;3.75;;;7.70;90.10;;;;;;5095448;28;20371;-64
2020/12/27 01:01:56;;;;;;;6.68;3.35;;;7.70;90.20;;;;;;5093484;28;20483;-65
2020/12/27 01:04:41;;;;;;;5.95;4.07;;;7.80;90.20;;;;;;5095488;28;20044;-64
2020/12/27 01:07:07;;;;;;;5.72;3.83;;;7.80;90.10;;;;;;5093772;28;20027;-64
2020/12/27 01:09:33;;;;;;;5.47;3.85;;;7.80;90.10;;;;;;5093236;28;20418;-64
2020/12/27 01:11:59;;;;;;;6.63;4.35;;;7.70;90.10;;;;;;5093968;28;20024;-65
2020/12/27 01:14:24;;;;;;;5.10;3.85;;;7.70;90.10;;;;;;5094845;28;20608;-64
2020/12/27 01:16:55;;;;;;;5.72;3.83;;;7.70;90.10;;;;;;5093258;28;20084;-64
2020/12/27 01:19:26;;;;;;;6.55;3.05;;;7.70;90.20;;;;;;5093725;28;20499;-64
2020/12/27 01:21:53;;;;;;;5.88;2.97;;;7.70;90.10;;;;;;5092984;28;20425;-64
2020/12/27 01:24:24;;;;;;;5.85;3.67;;;7.70;90.10;;;;;;5093629;28;20517;-64
2020/12/27 01:26:50;;;;;;;6.03;4.38;;;7.80;90.00;;;;;;5093718;28;20036;-64
2020/12/27 01:29:16;;;;;;;4.43;3.45;;;7.80;90.00;;;;;;5092769;28;20062;-64
2020/12/27 01:31:52;;;;;;;4.60;3.55;;;7.80;89.70;;;;;;5093635;28;20540;-64
2020/12/27 01:34:33;;;;;;;4.25;2.85;;;7.80;89.70;;;;;;5093444;28;20036;-64
2020/12/27 01:37:00;;;;;;;6.10;2.92;;;7.80;89.70;;;;;;5092766;28;20499;-64
2020/12/27 01:39:25;;;;;;;5.03;2.90;;;7.80;89.60;;;;;;5093199;28;20071;-65
2020/12/27 01:41:54;;;;;;;5.65;3.67;;;7.70;89.60;;;;;;5093391;28;20024;-64
2020/12/27 01:44:26;;;;;;;5.35;2.97;;;7.70;89.80;;;;;;5092484;28;20032;-64
2020/12/27 01:46:57;;;;;;;3.72;2.33;;;7.70;90.00;;;;;;5096473;28;20047;-64
2020/12/27 01:49:34;;;;;;;4.35;2.88;;;7.70;89.90;;;;;;5093071;28;20028;-64
2020/12/27 01:52:01;;;;;;;5.53;2.85;;;7.70;89.80;;;;;;5092840;28;20105;-64
2020/12/27 01:54:47;;;;;;;3.50;2.35;;;7.60;89.80;;;;;;5094071;28;20044;-64
2020/12/27 01:57:38;;;;;;;3.88;2.50;;;7.70;89.80;;;;;;5092207;28;20051;-64
2020/12/27 02:00:04;;;;;;;4.28;3.38;;;7.70;89.80;;;;;;5076339;28;20028;-64
2020/12/27 02:02:42;;;;;;;1.77;1.63;;;7.70;89.50;;;;;;5094337;28;20426;-64
2020/12/27 02:05:15;;;;;;;3.97;2.78;;;7.70;89.50;;;;;;5092262;28;20069;-65
2020/12/27 02:07:44;;;;;;;6.28;2.75;;;7.60;89.60;;;;;;5092540;28;20115;-64
2020/12/27 02:10:18;;;;;;;1.88;1.63;;;7.70;89.60;;;;;;5092942;28;20034;-64
2020/12/27 02:12:45;;;;;;;2.80;2.22;;;7.70;90.00;;;;;;5091436;28;20039;-64
2020/12/27 02:15:15;;;;;;;3.05;2.22;;;7.70;89.20;;;;;;5092604;28;20066;-64
2020/12/27 02:18:00;;;;;;;2.65;2.20;;;7.80;89.00;;;;;;5072544;28;20024;-64
2020/12/27 02:20:31;;;;;;;2.72;2.10;;;7.80;88.70;;;;;;5093031;28;20032;-64
2020/12/27 02:23:05;;;;;;;3.17;2.33;;;7.70;88.80;;;;;;5092482;28;20023;-64
2020/12/27 02:25:40;;;;;;;3.88;2.42;;;7.70;88.60;;;;;;5087455;28;20032;-64
2020/12/27 02:28:20;;;;;;;3.33;2.50;;;7.80;88.50;;;;;;5092335;28;20032;-64
2020/12/27 02:30:46;;;;;;;3.10;2.15;;;7.80;88.50;;;;;;5092419;28;20028;-64
2020/12/27 02:33:12;;;;;;;1.85;1.58;;;7.80;88.30;;;;;;5077265;28;20131;-64
2020/12/27 02:35:38;;;;;;;2.92;2.05;;;7.80;88.50;;;;;;5092206;28;20054;-65
2020/12/27 02:38:06;;;;;;;3.13;2.20;;;7.70;88.50;;;;;;5092348;28;20510;-64
2020/12/27 02:40:34;;;;;;;2.70;2.28;;;7.70;88.60;;;;;;5091429;28;20028;-64
2020/12/27 02:43:28;;;;;;;3.22;2.08;;;7.70;88.50;;;;;;5092116;28;20020;-64
2020/12/27 02:45:53;;;;;;;1.77;1.30;;;7.80;88.30;;;;;;5077373;28;20032;-65
2020/12/27 02:48:37;;;;;;;2.55;2.00;;;7.80;88.30;;;;;;5093636;28;20050;-64
2020/12/27 02:51:12;;;;;;;2.75;2.10;;;7.80;87.90;;;;;;5091941;28;20851;-64
2020/12/27 02:53:38;;;;;;;3.38;1.90;;;7.80;88.00;;;;;;5092589;28;20077;-64
2020/12/27 02:56:04;;;;;;;2.53;1.73;;;7.80;87.90;;;;;;5091862;28;20028;-64
2020/12/27 02:58:31;;;;;;;1.85;1.58;;;7.80;87.70;;;;;;5092114;28;20035;-64
2020/12/27 03:00:59;;;;;;;2.22;1.77;;;7.70;87.60;;;;;;5090860;28;20395;-65
2020/12/27 03:03:24;;;;;;;2.65;1.88;;;7.80;87.80;;;;;;5093202;28;20028;-64
2020/12/27 03:05:57;;;;;;;2.47;1.67;;;7.80;87.60;;;;;;5091881;28;20142;-65
2020/12/27 03:08:22;;;;;;;2.95;1.80;;;7.80;87.30;;;;;;5092362;28;20482;-64
2020/12/27 03:11:13;;;;;;;3.15;2.00;;;7.80;87.20;;;;;;5091603;28;20036;-64
2020/12/27 03:13:40;;;;;;;2.58;1.90;;;7.80;87.10;;;;;;5091726;28;20035;-64
2020/12/27 03:16:09;;;;;;;3.85;1.83;;;7.70;87.00;;;;;;5092249;28;20028;-64
2020/12/27 03:18:48;;;;;;;2.35;1.70;;;7.80;87.00;;;;;;5091808;28;20406;-64
2020/12/27 03:21:32;;;;;;;;;;;7.70;87.20;;;;;;5092296;28;20039;-64
2020/12/27 03:24:02;;;;;;;2.95;1.83;;;7.70;87.10;;;;;;5091677;28;20366;-64
2020/12/27 03:26:33;;;;;;;2.63;1.75;;;7.60;87.00;;;;;;5091318;28;20068;-65
2020/12/27 03:28:59;;;;;;;2.30;1.83;;;7.60;87.20;;;;;;5090921;28;20100;-64
2020/12/27 03:31:25;;;;;;;3.00;1.90;;;7.60;87.20;;;;;;5091501;28;20028;-64
2020/12/27 03:33:56;;;;;;;2.70;1.95;;;7.60;87.30;;;;;;5091313;28;20032;-64
2020/12/27 03:36:22;;;;;;;2.00;1.80;;;7.60;87.20;;;;;;5092115;28;20055;-64
2020/12/27 03:39:01;;;;;;;3.72;2.33;;;7.60;87.10;;;;;;5091414;28;20436;-64
2020/12/27 03:41:39;;;;;;;3.28;2.35;;;7.60;87.00;;;;;;5091543;28;20028;-64
2020/12/27 03:44:12;;;;;;;3.05;2.30;;;7.60;86.70;;;;;;5090661;28;20032;-64
2020/12/27 03:46:58;;;;;;;3.75;2.53;;;7.60;86.70;;;;;;5092215;28;20044;-64
2020/12/27 03:49:39;;;;;;;3.05;2.30;;;7.60;86.70;;;;;;5090734;28;20024;-65
2020/12/27 03:52:12;;;;;;;3.92;2.35;;;7.60;86.50;;;;;;5091218;28;20032;-65
2020/12/27 03:54:55;;;;;;;;;;;7.60;86.50;;;;;;5093147;28;20102;-64
2020/12/27 03:57:41;;;;;;;5.30;2.30;;;7.60;86.50;;;;;;5091670;28;20002;-64
2020/12/27 04:00:29;;;;;;;5.85;2.45;;;7.50;86.60;;;;;;5091268;28;20029;-64
2020/12/27 04:03:01;;;;;;;2.92;2.10;;;7.50;86.50;;;;;;5091213;28;20036;-64
2020/12/27 04:05:28;;;;;;;2.58;2.00;;;7.50;86.50;;;;;;5090100;28;20045;-64
2020/12/27 04:07:53;;;;;;;2.67;2.13;;;7.50;86.60;;;;;;5091077;28;20482;-64
2020/12/27 04:10:20;;;;;;;3.65;2.38;;;7.50;86.50;;;;;;5091134;28;20475;-64
2020/12/27 04:12:46;;;;;;;3.28;1.88;;;7.50;86.90;;;;;;5090235;28;20081;-64
2020/12/27 04:15:13;;;;;;;4.45;3.00;;;7.50;86.30;;;;;;5091135;28;20135;-64
2020/12/27 04:17:54;;;;;;;2.75;2.08;;;7.50;86.40;;;;;;5090327;28;20028;-64
2020/12/27 04:20:24;;;;;;;3.40;2.22;;;7.50;86.10;;;;;;5091160;28;20028;-64
2020/12/27 04:22:50;;;;;;;4.28;2.15;;;7.50;86.20;;;;;;5090800;28;20430;-64
2020/12/27 04:25:18;;;;;;;3.47;2.00;;;7.50;86.30;;;;;;5090349;28;20024;-64
2020/12/27 04:27:45;;;;;;;3.00;2.03;;;7.60;87.00;;;;;;5090926;28;20031;-64
2020/12/27 04:30:11;;;;;;;3.00;1.83;;;7.50;86.30;;;;;;5091039;28;20020;-64
2020/12/27 04:32:53;;;;;;;3.50;2.17;;;7.50;86.30;;;;;;5092479;28;20080;-64
2020/12/27 04:35:23;;;;;;;6.90;2.42;;;7.50;86.10;;;;;;5094419;28;20079;-64
2020/12/27 04:37:49;;;;;;;4.70;2.50;;;7.50;86.10;;;;;;5094696;28;20364;-64
2020/12/27 04:40:25;;;;;;;3.38;2.25;;;7.50;86.20;;;;;;5093790;28;20117;-64
2020/12/27 04:42:52;;;;;;;5.18;2.47;;;7.50;86.10;;;;;;5094714;28;20391;-64
2020/12/27 04:45:31;;;;;;;3.95;2.53;;;7.50;86.10;;;;;;5094436;28;20032;-64
2020/12/27 04:48:08;;;;;;;3.72;2.72;;;7.40;86.00;;;;;;5093786;28;20463;-64
2020/12/27 04:50:53;;;;;;;3.28;2.40;;;7.40;86.70;;;;;;5095685;28;20047;-64
2020/12/27 04:53:20;;;;;;;2.65;2.15;;;7.40;86.00;;;;;;5093645;28;20061;-64
2020/12/27 04:55:51;;;;;;;3.03;2.25;;;7.40;86.20;;;;;;5094083;28;20063;-64
2020/12/27 04:58:29;;;;;;;3.35;1.80;;;7.40;86.30;;;;;;5094292;28;20027;-64
2020/12/27 05:01:09;;;;;;;3.35;2.50;;;7.30;86.30;;;;;;5093365;28;20387;-64
2020/12/27 05:03:55;;;;;;;2.28;1.90;;;7.30;86.30;;;;;;5095313;28;20470;-64
2020/12/27 05:06:22;;;;;;;3.95;2.30;;;7.30;86.30;;;;;;5094231;28;20031;-64
2020/12/27 05:08:48;;;;;;;2.63;1.63;;;7.30;86.50;;;;;;5093364;28;20024;-64
2020/12/27 05:11:18;;;;;;;2.85;1.92;;;7.30;86.40;;;;;;5093889;28;20024;-64
2020/12/27 05:13:50;;;;;;;1.45;1.15;;;7.30;86.40;;;;;;5093886;28;20028;-64
2020/12/27 05:16:24;;;;;;;3.25;2.00;;;7.30;86.50;;;;;;5093797;28;20153;-64
2020/12/27 05:18:51;;;;;;;2.78;1.75;;;7.30;86.40;;;;;;5093949;28;20119;-64
2020/12/27 05:21:23;;;;;;;2.38;1.52;;;7.30;86.20;;;;;;5093134;28;20503;-64
2020/12/27 05:23:53;;;;;;;1.40;1.30;;;7.30;86.40;;;;;;5093767;28;20480;-64
2020/12/27 05:26:29;;;;;;;3.08;1.80;;;7.30;86.20;;;;;;5093543;28;20027;-64
2020/12/27 05:29:34;;;;;;;4.00;1.52;;;7.30;86.10;;;;;;5092704;28;20178;-64
2020/12/27 05:32:06;;;;;;;1.42;1.20;;;7.40;86.10;;;;;;5093652;28;20035;-64
2020/12/27 05:35:00;;;;;;;1.13;1.02;;;7.30;86.00;;;;;;5093804;28;20449;-64
2020/12/27 05:37:47;;;;;;;1.25;1.10;;;7.30;85.90;;;;;;5094911;28;20043;-64
2020/12/27 05:40:54;;;;;;;2.88;1.73;;;7.30;85.80;;;;;;5079579;28;20545;-64
2020/12/27 05:43:28;;;;;;;2.92;1.35;;;7.30;86.00;;;;;;5093462;28;20391;-64
2020/12/27 05:46:07;;;;;;;2.13;1.23;;;7.30;85.90;;;;;;5093231;28;20547;-64
2020/12/27 05:48:33;;;;;;;2.13;1.40;;;7.30;85.90;;;;;;5093386;28;20127;-64
2020/12/27 05:51:02;;;;;;;2.40;1.63;;;7.30;85.80;;;;;;5092643;28;20035;-64
2020/12/27 05:53:31;;;;;;;1.92;1.50;;;7.30;86.50;;;;;;5092718;28;20044;-64
2020/12/27 05:56:01;;;;;;;1.23;1.10;;;7.30;85.70;;;;;;5092913;28;20036;-64
2020/12/27 05:58:38;;;;;;;2.20;1.20;;;7.30;85.50;;;;;;5093180;28;20077;-64
2020/12/27 06:01:22;;;;;;;1.95;1.30;;;7.30;85.70;;;;;;5093119;28;20411;-64
2020/12/27 06:03:55;;;;;;;2.47;1.58;;;7.30;85.50;;;;;;5092324;28;20028;-64
2020/12/27 06:06:53;;;;;;;1.58;1.33;;;7.30;85.60;;;;;;5093053;28;20051;-64
2020/12/27 06:09:50;;;;;;;3.38;1.13;;;7.20;85.50;;;;;;5092675;28;20526;-64
2020/12/27 06:12:20;;;;;;;2.28;1.55;;;7.20;85.80;;;;;;5092136;28;20031;-64
2020/12/27 06:15:06;;;;;;;3.10;1.50;;;7.20;85.80;;;;;;5092807;28;20047;-64
2020/12/27 06:17:50;;;;;;;2.00;1.25;;;7.20;85.90;;;;;;5093256;28;20047;-64
2020/12/27 06:20:45;;;;;;;4.78;1.30;;;7.10;85.80;;;;;;5084095;28;20077;-64
2020/12/27 06:23:13;;;;;;;2.08;1.50;;;7.20;86.00;;;;;;5092455;28;20024;-64
2020/12/27 06:25:54;;;;;;;4.18;1.80;;;7.10;85.90;;;;;;5091957;28;20020;-64
2020/12/27 06:28:20;;;;;;;1.83;1.27;;;7.10;86.00;;;;;;5092272;28;20024;-64
2020/12/27 06:31:09;;;;;;;2.45;1.30;;;7.00;86.10;;;;;;5092599;28;20024;-64
2020/12/27 06:33:50;;;;;;;1.38;1.20;;;7.10;86.30;;;;;;5092246;28;20036;-64
2020/12/27 06:36:35;;;;;;;1.20;1.10;;;7.10;86.30;;;;;;5092415;28;20036;-64
2020/12/27 06:39:26;;;;;;;1.38;1.27;;;7.00;86.20;;;;;;5091749;28;20047;-64
2020/12/27 06:42:13;;;;;;;1.10;1.00;;;7.00;86.40;;;;;;5109120;28;20028;-64
2020/12/27 06:45:30;;;;;;;1.20;1.02;;;7.00;86.60;;;;;;5088997;28;20034;-64
2020/12/27 06:48:36;;;;;;;1.42;1.30;;;6.90;86.80;;;;;;5087787;28;20039;-64
2020/12/27 06:51:43;;;;;;;1.08;1.08;;;6.90;87.00;;;;;;5083075;28;20127;-64
2020/12/27 06:54:46;;;;;;;0.95;0.95;;;6.90;87.20;;;;;;5073267;28;20041;-64
2020/12/27 06:57:44;;;;;;;1.40;1.02;;;7.00;87.40;;;;;;5088238;28;20028;-64
2020/12/27 07:00:20;;;;;;;1.33;1.23;;;7.00;87.80;;;;;;5091138;28;20077;-64
2020/12/27 07:03:15;;;;;;;0.95;0.95;;;7.00;86.90;;;;;;5093165;28;20028;-64
2020/12/27 07:05:41;;;;;;;1.40;1.25;;;7.00;86.90;;;;;;5093016;28;20032;-64
2020/12/27 07:08:10;;;;;;;1.42;1.10;;;7.00;86.80;;;;;;5092606;28;20032;-64
2020/12/27 07:10:39;;;;;;;1.05;0.90;;;7.00;86.60;;;;;;5093190;28;20028;-64
2020/12/27 07:13:15;;;;;;;1.00;0.90;;;7.10;86.80;;;;;;5092841;28;20476;-64
2020/12/27 07:15:58;;;;;;;2.13;1.20;;;7.10;86.70;;;;;;5092226;28;20424;-64
2020/12/27 07:18:25;;;;;;;1.15;0.88;;;7.10;86.40;;;;;;5080485;28;20031;-64
2020/12/27 07:20:54;;;;;;;0.60;0.60;;;7.10;86.40;;;;;;5092319;28;20032;-64
2020/12/27 07:23:23;;;;;;;1.88;0.60;;;7.10;86.50;;;;;;5078984;28;20024;-64
2020/12/27 07:25:55;;;;;;;1.20;0.80;;;7.10;86.60;;;;;;5092892;28;20031;-64
2020/12/27 07:28:22;;;;;;;0.80;0.80;;;7.10;86.50;;;;;;5091843;28;20032;-64
2020/12/27 07:30:58;;;;;;;0.70;0.70;;;7.10;86.30;;;;;;5092791;28;20460;-64
2020/12/27 07:33:35;;;;;;;0.80;0.80;;;7.20;86.30;;;;;;5092700;28;20106;-64
2020/12/27 07:36:09;;;;;;;2.00;0.70;;;7.20;86.40;;;;;;5092113;28;20063;-64
2020/12/27 07:39:01;;;;;;;1.55;0.88;;;7.10;86.40;;;;;;5092512;28;20044;-64
2020/12/27 07:41:28;;;;;;;0.82;0.82;;;7.10;86.50;;;;;;5092816;28;20032;-64
2020/12/27 07:43:54;;;;;;;1.92;1.05;;;7.00;86.50;;;;;;5091688;28;20540;-64
2020/12/27 07:46:21;;;;;;;0.68;0.68;;;7.10;86.70;;;;;;5092540;28;20040;-64
2020/12/27 07:48:48;;;;;;;1.02;0.75;;;7.00;86.80;;;;;;5091858;28;20059;-64
2020/12/27 07:51:19;;;;;;;0.70;0.70;;;7.10;87.00;;;;;;5092483;28;20101;-64
2020/12/27 07:53:49;;;;;;;0.45;0.45;;;7.10;87.00;;;;;;5092604;28;20032;-65
2020/12/27 07:56:20;;;;;;;0.77;0.77;;;7.10;86.90;;;;;;5092060;28;20032;-64
2020/12/27 07:58:57;;;;;;;0.75;0.75;;;7.10;87.00;;;;;;5092466;28;20028;-64
2020/12/27 08:01:24;;;;;;;0.70;0.70;;;7.00;86.90;;;;;;5092643;28;20116;-64
2020/12/27 08:04:06;;;;;;;1.13;1.00;;;7.00;87.00;;;;;;5091783;28;20107;-64
2020/12/27 08:06:33;;;;;;;0.82;0.80;;;7.00;87.30;;;;;;5094564;28;20024;-64
2020/12/27 08:09:11;;;;;;;1.23;0.90;;;7.00;87.30;;;;;;5096440;28;20115;-64
2020/12/27 08:11:39;;;;;;;1.42;1.23;;;7.10;87.20;;;;;;5095878;28;20035;-64
2020/12/27 08:14:07;;;;;;;0.93;0.90;;;7.10;87.20;;;;;;5095997;28;20436;-64
2020/12/27 08:16:35;;;;;;;4.72;0.63;;;7.10;87.20;;;;;;5096260;28;20490;-64
2020/12/27 08:19:13;;;;;;;1.05;0.95;;;7.10;87.40;;;;;;5095892;28;20463;-65
2020/12/27 08:21:43;;;;;;;0.95;0.63;;;7.10;87.30;;;;;;5096435;28;20024;-65
2020/12/27 08:24:14;;;;;;;0.60;0.60;;;7.10;87.30;;;;;;5095603;28;20039;-64
2020/12/27 08:26:45;;;;;;;0.50;0.50;;;7.10;87.50;;;;;;5096187;28;20063;-65
2020/12/27 08:29:19;;;;;;;0.50;0.50;;;7.00;87.50;;;;;;5096353;28;20032;-64
2020/12/27 08:31:46;;;;;;;;;;;7.10;87.50;;;;;;5095600;28;20035;-64
2020/12/27 08:34:13;;;;;;;0.60;0.60;;;7.10;87.40;;;;;;5095929;28;19912;-65
2020/12/27 08:36:40;;;;;;;0.50;0.45;;;7.10;87.40;;;;;;5096106;28;20059;-66
2020/12/27 08:39:20;;;;;;;1.90;0.85;;;7.10;87.50;;;;;;5089621;28;20055;-66
2020/12/27 08:41:58;;;;;;;0.47;0.47;;;7.10;87.60;;;;;;5092221;28;20537;-65
2020/12/27 08:44:34;;;;;;;0.60;0.60;;;7.10;87.60;;;;;;5084319;28;20111;-65
2020/12/27 08:47:03;;;;;;;3.55;0.60;;;7.10;87.60;;;;;;5081115;28;20090;-66
2020/12/27 08:49:40;;;;;;;0.40;0.40;;;7.10;87.90;;;;;;5079940;28;20111;-64
2020/12/27 08:52:16;;;;;;;0.50;0.50;;;7.10;88.10;;;;;;5076313;28;20024;-64
2020/12/27 08:54:41;;;;;;;0.68;0.63;;;7.00;88.10;;;;;;5078381;28;20039;-64
2020/12/27 08:57:10;;;;;;;0.73;0.70;;;7.10;88.10;;;;;;5075117;28;20357;-64
2020/12/27 08:59:35;;;;;;;0.50;0.50;;;7.10;88.00;;;;;;5076727;28;20028;-65
2020/12/27 09:02:10;;;;;;;0.60;0.60;;;7.10;88.00;;;;;;5077071;28;20039;-65
2020/12/27 09:04:36;;;;;;;0.52;0.52;;;7.10;88.10;;;;;;5081218;28;20542;-65
2020/12/27 09:07:02;;;;;;;0.40;0.40;;;7.10;88.20;;;;;;5090418;28;20161;-64
2020/12/27 09:09:28;;;;;;;0.60;0.60;;;7.10;88.20;;;;;;5083975;28;20065;-64
2020/12/27 09:11:54;;;;;;;0.45;0.45;;;7.20;88.30;;;;;;5075254;28;20399;-64
2020/12/27 09:14:36;;;;;;;0.50;0.50;;;7.10;88.20;;;;;;5074438;28;20147;-64
2020/12/27 09:17:08;;;;;;;0.68;0.68;;;7.20;88.30;;;;;;5077173;28;20485;-64
2020/12/27 09:19:35;;;;;;;0.73;0.57;;;7.10;88.30;;;;;;5077274;28;20028;-64
2020/12/27 09:22:05;;;;;;;0.75;0.75;;;7.10;88.70;;;;;;5093540;28;20479;-64
2020/12/27 09:24:32;;;;;;;0.60;0.60;;;7.00;88.80;;;;;;5092830;28;20024;-65
2020/12/27 09:27:16;;;;;;;0.50;0.50;;;7.10;88.90;;;;;;5093929;28;20066;-64
2020/12/27 09:29:42;;;;;;;0.50;0.50;;;7.10;88.90;;;;;;5092741;28;20097;-65
2020/12/27 09:32:10;;;;;;;1.33;0.57;;;7.10;88.70;;;;;;5093780;28;20028;-65
2020/12/27 09:34:36;;;;;;;0.45;0.45;;;7.10;88.60;;;;;;5092975;28;20036;-65
2020/12/27 09:37:13;;;;;;;0.50;0.50;;;7.10;88.70;;;;;;5094744;28;20024;-65
2020/12/27 09:39:38;;;;;;;0.40;0.40;;;7.20;89.30;;;;;;5094693;28;20086;-64
2020/12/27 09:42:04;;;;;;;0.60;0.45;;;7.20;88.60;;;;;;5094022;28;20028;-65
2020/12/27 09:44:30;;;;;;;0.43;0.43;;;7.20;88.60;;;;;;5094817;28;20387;-65
2020/12/27 09:46:57;;;;;;;0.47;0.47;;;7.20;88.50;;;;;;5080169;28;20087;-65
2020/12/27 09:49:24;;;;;;;0.55;0.55;;;7.30;88.40;;;;;;5094137;28;20027;-65
2020/12/27 09:52:12;;;;;;;0.35;0.35;;;7.30;88.40;;;;;;5094606;28;20506;-65
2020/12/27 09:54:40;;;;;;;0.52;0.50;;;7.30;88.40;;;;;;5094643;28;20114;-65
2020/12/27 09:57:09;;;;;;;0.88;0.70;;;7.30;88.40;;;;;;5093682;28;20028;-64
2020/12/27 09:59:35;;;;;;;0.30;0.30;;;7.30;88.30;;;;;;5094456;28;20150;-64
2020/12/27 10:02:01;;;;;;;0.40;0.30;;;7.30;88.40;;;;;;5094405;28;20070;-65
2020/12/27 10:04:27;;;;;;;0.40;0.40;;;7.30;88.40;;;;;;5093361;28;20417;-64
2020/12/27 10:06:52;;;;;;;0.40;0.40;;;7.30;88.30;;;;;;5094240;28;20044;-65
2020/12/27 10:09:18;;;;;;;0.75;0.40;;;7.30;88.30;;;;;;5093750;28;20051;-65
2020/12/27 10:11:44;;;;;;;0.50;0.50;;;7.40;88.30;;;;;;5094103;28;20489;-64
2020/12/27 10:14:09;;;;;;;0.57;0.40;;;7.30;88.20;;;;;;5093853;28;20518;-65
2020/12/27 10:16:35;;;;;;;0.30;0.30;;;7.30;88.30;;;;;;5093406;28;20040;-65
2020/12/27 10:19:00;;;;;;;1.55;0.60;;;7.30;88.40;;;;;;5094062;28;20024;-65
2020/12/27 10:21:26;;;;;;;0.35;0.35;;;7.30;88.40;;;;;;5093739;28;20425;-65
2020/12/27 10:23:52;;;;;;;1.27;0.65;;;7.30;88.60;;;;;;5093200;28;20081;-64
2020/12/27 10:26:17;;;;;;;0.40;0.40;;;7.40;88.60;;;;;;5082811;28;20063;-65
2020/12/27 10:28:43;;;;;;;0.40;0.40;;;7.40;88.60;;;;;;5074619;28;20032;-67
2020/12/27 10:31:09;;;;;;;0.40;0.40;;;7.40;88.60;;;;;;5073972;28;20020;-65
2020/12/27 10:33:35;;;;;;;0.30;0.30;;;7.40;88.50;;;;;;5076485;28;20020;-65
2020/12/27 10:36:01;;;;;;;0.50;0.50;;;7.40;88.50;;;;;;5081805;28;20494;-64
2020/12/27 10:38:27;;;;;;;0.30;0.30;;;7.40;88.50;;;;;;5072877;28;20372;-64
2020/12/27 10:40:52;;;;;;;1.40;0.40;;;7.40;88.40;;;;;;5077028;28;20397;-65
2020/12/27 10:43:19;;;;;;;0.40;0.40;;;7.40;88.40;;;;;;5077244;28;20471;-64
2020/12/27 10:45:44;;;;;;;0.40;0.40;;;7.40;88.50;;;;;;5074967;28;20032;-66
2020/12/27 10:48:10;;;;;;;0.60;0.60;;;7.40;88.70;;;;;;5074712;28;20047;-64
2020/12/27 10:50:41;;;;;;;0.70;0.40;;;7.40;88.70;;;;;;5076726;28;20472;-65
2020/12/27 10:53:10;;;;;;;0.47;0.43;;;7.40;88.60;;;;;;5074409;28;20443;-64
2020/12/27 10:55:35;;;;;;;0.32;0.32;;;7.40;88.60;;;;;;5074775;28;20071;-64
2020/12/27 10:58:01;;;;;;;0.40;0.40;;;7.40;88.70;;;;;;5073275;28;20060;-64
2020/12/27 11:00:26;;;;;;;0.30;0.30;;;7.40;88.70;;;;;;5074365;28;20032;-65
2020/12/27 11:02:52;;;;;;;0.40;0.40;;;7.40;88.60;;;;;;5074766;28;20115;-64
2020/12/27 11:05:18;;;;;;;0.30;0.30;;;7.50;88.70;;;;;;5081201;28;20029;-65
2020/12/27 11:07:43;;;;;;;0.40;0.40;;;7.50;88.60;;;;;;5072384;28;20068;-65
2020/12/27 11:10:09;;;;;;;0.43;0.30;;;7.50;88.30;;;;;;5074584;28;20391;-65
2020/12/27 11:12:35;;;;;;;0.50;0.50;;;7.50;88.10;;;;;;5087830;28;20024;-65
2020/12/27 11:15:00;;;;;;;0.50;0.50;;;7.50;88.20;;;;;;5080604;28;20043;-65
2020/12/27 11:17:26;;;;;;;0.35;0.35;;;7.50;88.20;;;;;;5079430;28;20404;-65
2020/12/27 11:19:51;;;;;;;0.40;0.40;;;7.60;88.20;;;;;;5072943;28;20033;-65
2020/12/27 11:22:17;;;;;;;0.38;0.38;;;7.50;88.00;;;;;;5076090;28;20027;-65
2020/12/27 11:24:43;;;;;;;0.47;0.47;;;7.50;88.20;;;;;;5071697;28;20032;-65
2020/12/27 11:27:08;;;;;;;0.20;0.20;;;7.50;88.20;;;;;;5081689;28;20032;-66
2020/12/27 11:29:34;;;;;;;0.50;0.50;;;7.50;88.30;;;;;;5086480;28;20078;-65
2020/12/27 11:31:59;;;;;;;0.30;0.30;;;7.60;88.50;;;;;;5074655;28;20044;-65
2020/12/27 11:34:25;;;;;;;0.55;0.40;;;7.50;88.20;;;;;;5073362;28;20032;-65
2020/12/27 11:36:51;;;;;;;0.40;0.40;;;7.50;88.10;;;;;;5073633;28;20031;-64
2020/12/27 11:39:17;;;;;;;0.38;0.38;;;7.60;88.10;;;;;;5091386;28;20161;-65
2020/12/27 11:41:47;;;;;;;0.38;0.38;;;7.60;88.20;;;;;;5085212;28;20127;-64
2020/12/27 11:44:12;;;;;;;2.45;0.50;;;7.60;88.20;;;;;;5084758;28;20161;-64
2020/12/27 11:46:38;;;;;;;0.43;0.43;;;7.50;88.00;;;;;;5087415;28;20120;-65
2020/12/27 11:49:03;;;;;;;0.30;0.30;;;7.60;88.20;;;;;;5081824;28;20040;-65
2020/12/27 11:51:29;;;;;;;0.40;0.40;;;7.50;88.10;;;;;;5091899;28;20386;-65
2020/12/27 11:53:55;;;;;;;0.30;0.30;;;7.50;88.30;;;;;;5083434;28;20036;-65
2020/12/27 11:56:20;;;;;;;1.17;0.45;;;7.50;88.20;;;;;;5083877;28;20123;-65
2020/12/27 11:58:46;;;;;;;0.40;0.40;;;7.50;88.20;;;;;;5079455;28;20040;-65
2020/12/27 12:01:13;;;;;;;0.25;0.25;;;7.50;88.20;;;;;;5079575;28;20507;-65
2020/12/27 12:03:38;;;;;;;0.40;0.40;;;7.60;88.80;;;;;;5078048;28;20035;-65
2020/12/27 12:06:04;;;;;;;0.40;0.40;;;7.60;88.10;;;;;;5078752;28;20119;-64
2020/12/27 12:08:30;;;;;;;0.30;0.30;;;7.60;88.10;;;;;;5078374;28;20024;-65
2020/12/27 12:10:56;;;;;;;0.40;0.40;;;7.60;88.10;;;;;;5080454;28;20032;-65
2020/12/27 12:13:21;;;;;;;0.30;0.30;;;7.60;88.00;;;;;;5079693;28;20081;-65
2020/12/27 12:15:47;;;;;;;0.40;0.40;;;7.60;88.00;;;;;;5080988;28;20044;-65
2020/12/27 12:18:12;;;;;;;0.40;0.40;;;7.60;88.00;;;;;;5078955;28;20111;-64
2020/12/27 12:20:47;;;;;;;0.40;0.40;;;7.60;87.90;;;;;;5078693;28;20083;-65
2020/12/27 12:23:14;;;;;;;0.38;0.38;;;7.60;87.90;;;;;;5078307;28;20441;-65
2020/12/27 12:25:47;;;;;;;0.35;0.35;;;7.60;88.00;;;;;;5081694;28;20107;-65
2020/12/27 12:28:12;;;;;;;0.30;0.30;;;7.60;88.70;;;;;;5078511;28;20456;-65
2020/12/27 12:30:43;;;;;;;0.43;0.43;;;7.60;87.80;;;;;;5082868;28;20123;-65
2020/12/27 12:33:12;;;;;;;0.70;0.70;;;7.70;88.10;;;;;;5082639;28;20032;-63
2020/12/27 12:35:40;;;;;;;0.60;0.60;;;7.70;87.90;;;;;;5079117;28;20075;-65
2020/12/27 12:38:05;;;;;;;1.00;0.52;;;7.70;87.60;;;;;;5077574;28;20044;-65
2020/12/27 12:40:31;;;;;;;0.40;0.40;;;7.70;87.30;;;;;;5083126;28;20078;-66
2020/12/27 12:42:57;;;;;;;0.30;0.30;;;7.70;87.10;;;;;;5080122;28;20052;-65
2020/12/27 12:45:23;;;;;;;0.43;0.43;;;7.80;87.20;;;;;;5084339;28;20036;-65
2020/12/27 12:47:48;;;;;;;0.40;0.40;;;7.70;87.10;;;;;;5079316;28;20119;-65
2020/12/27 12:50:14;;;;;;;0.55;0.55;;;7.70;86.90;;;;;;5079189;28;20028;-66
2020/12/27 12:52:40;;;;;;;0.65;0.50;;;7.70;87.00;;;;;;5077143;28;20052;-65
2020/12/27 12:55:07;;;;;;;0.30;0.30;;;7.70;87.00;;;;;;5074963;28;20078;-65
2020/12/27 12:57:32;;;;;;;0.30;0.30;;;7.70;86.90;;;;;;5079678;28;20028;-65
2020/12/27 12:59:58;;;;;;;0.30;0.30;;;7.70;86.90;;;;;;5078931;28;20112;-65
2020/12/27 13:02:24;;;;;;;0.30;0.30;;;7.80;86.80;;;;;;5093794;28;20405;-64
2020/12/27 13:04:49;;;;;;;0.40;0.40;;;7.80;86.80;;;;;;5093708;28;20111;-64
2020/12/27 13:07:17;;;;;;;0.45;0.45;;;7.70;86.70;;;;;;5092559;28;20066;-64
2020/12/27 13:09:43;;;;;;;0.30;0.30;;;7.70;86.70;;;;;;5093711;28;20020;-64
2020/12/27 13:12:08;;;;;;;0.40;0.40;;;7.70;86.90;;;;;;5092158;28;20027;-64
2020/12/27 13:14:34;;;;;;;0.47;0.43;;;7.70;86.90;;;;;;5090026;28;20431;-64
2020/12/27 13:17:00;;;;;;;0.28;0.28;;;7.70;86.90;;;;;;5092432;28;20375;-65
2020/12/27 13:19:25;;;;;;;0.40;0.40;;;7.70;87.00;;;;;;5088015;28;20487;-64